sensor_id;sensor_type;location;lat;lon;timestamp;P1;durP1;ratioP1;P2;durP2;ratioP2
49980;SDS011;35871;51.594;7.138;2023-04-24T05:51:58;5.45;;;3.15;;
49980;SDS011;35871;51.594;7.138;2023-04-24T06:02:04;7.53;;;4.53;;
49980;SDS011;35871;51.594;7.138;2023-04-24T06:07:05;5.32;;;3.72;;
49980;SDS011;35871;51.594;7.138;2023-04-24T06:12:06;4.35;;;3.50;;
49980;SDS011;35871;51.594;7.138;2023-04-24T06:17:08;7.78;;;6.40;;
49980;SDS011;35871;51.594;7.138;2023-04-24T06:27:10;6.72;;;5.60;;
49980;SDS011;35871;51.594;7.138;2023-04-24T06:32:11;5.47;;;4.35;;
49980;SDS011;35871;51.594;7.138;2023-04-24T06:37:12;7.95;;;5.28;;
49980;SDS011;35871;51.594;7.138;2023-04-24T06:42:14;6.32;;;4.20;;
49980;SDS011;35871;51.594;7.138;2023-04-24T06:52:16;6.05;;;4.22;;
49980;SDS011;35871;51.594;7.138;2023-04-24T07:02:18;4.03;;;2.10;;
49980;SDS011;35871;51.594;7.138;2023-04-24T07:07:21;2.45;;;1.75;;
49980;SDS011;35871;51.594;7.138;2023-04-24T07:12:29;2.85;;;1.77;;
49980;SDS011;35871;51.594;7.138;2023-04-24T07:22:31;2.42;;;1.90;;
49980;SDS011;35871;51.594;7.138;2023-04-24T07:32:33;7.07;;;2.90;;
49980;SDS011;35871;51.594;7.138;2023-04-24T07:37:35;6.30;;;4.20;;
49980;SDS011;35871;51.594;7.138;2023-04-24T07:42:36;8.48;;;6.88;;
49980;SDS011;35871;51.594;7.138;2023-04-24T07:47:38;23.45;;;18.60;;
49980;SDS011;35871;51.594;7.138;2023-04-24T07:52:39;31.83;;;25.30;;
49980;SDS011;35871;51.594;7.138;2023-04-24T08:02:41;17.58;;;12.07;;
49980;SDS011;35871;51.594;7.138;2023-04-24T08:12:45;12.02;;;7.65;;
49980;SDS011;35871;51.594;7.138;2023-04-24T08:22:47;12.45;;;8.30;;
49980;SDS011;35871;51.594;7.138;2023-04-24T08:27:48;7.35;;;4.68;;
49980;SDS011;35871;51.594;7.138;2023-04-24T08:32:50;10.48;;;5.93;;
49980;SDS011;35871;51.594;7.138;2023-04-24T08:37:51;8.90;;;5.13;;
49980;SDS011;35871;51.594;7.138;2023-04-24T08:42:54;5.70;;;3.60;;
49980;SDS011;35871;51.594;7.138;2023-04-24T08:47:56;5.35;;;3.35;;
49980;SDS011;35871;51.594;7.138;2023-04-24T08:53:00;5.35;;;3.50;;
49980;SDS011;35871;51.594;7.138;2023-04-24T08:58:01;8.40;;;3.25;;
49980;SDS011;35871;51.594;7.138;2023-04-24T09:03:03;5.90;;;3.33;;
49980;SDS011;35871;51.594;7.138;2023-04-24T09:08:05;4.85;;;2.90;;
49980;SDS011;35871;51.594;7.138;2023-04-24T09:13:06;6.82;;;3.10;;
49980;SDS011;35871;51.594;7.138;2023-04-24T09:18:11;4.88;;;2.40;;
49980;SDS011;35871;51.594;7.138;2023-04-24T09:23:17;4.78;;;2.80;;
49980;SDS011;35871;51.594;7.138;2023-04-24T09:28:18;3.53;;;1.90;;
49980;SDS011;35871;51.594;7.138;2023-04-24T09:33:19;4.72;;;1.80;;
49980;SDS011;35871;51.594;7.138;2023-04-24T09:38:22;3.22;;;1.80;;
49980;SDS011;35871;51.594;7.138;2023-04-24T09:43:31;3.25;;;1.80;;
49980;SDS011;35871;51.594;7.138;2023-04-24T09:48:33;4.07;;;1.40;;
49980;SDS011;35871;51.594;7.138;2023-04-24T09:53:34;2.97;;;1.45;;
49980;SDS011;35871;51.594;7.138;2023-04-24T09:58:36;4.10;;;1.90;;
49980;SDS011;35871;51.594;7.138;2023-04-24T10:03:37;2.15;;;1.52;;
49980;SDS011;35871;51.594;7.138;2023-04-24T10:08:38;3.80;;;1.90;;
49980;SDS011;35871;51.594;7.138;2023-04-24T10:18:40;3.50;;;2.50;;
49980;SDS011;35871;51.594;7.138;2023-04-24T10:23:42;3.10;;;1.90;;
49980;SDS011;35871;51.594;7.138;2023-04-24T10:28:46;7.50;;;2.10;;
49980;SDS011;35871;51.594;7.138;2023-04-24T10:33:47;5.90;;;2.10;;
49980;SDS011;35871;51.594;7.138;2023-04-24T10:38:50;4.20;;;2.75;;
49980;SDS011;35871;51.594;7.138;2023-04-24T10:44:13;4.32;;;2.40;;
49980;SDS011;35871;51.594;7.138;2023-04-24T10:49:14;5.15;;;2.47;;
49980;SDS011;35871;51.594;7.138;2023-04-24T10:54:25;4.35;;;2.53;;
49980;SDS011;35871;51.594;7.138;2023-04-24T10:59:27;7.78;;;2.08;;
49980;SDS011;35871;51.594;7.138;2023-04-24T11:04:37;7.97;;;2.72;;
49980;SDS011;35871;51.594;7.138;2023-04-24T11:09:38;14.90;;;3.13;;
49980;SDS011;35871;51.594;7.138;2023-04-24T11:20:01;8.60;;;2.60;;
49980;SDS011;35871;51.594;7.138;2023-04-24T11:25:04;9.98;;;2.92;;
49980;SDS011;35871;51.594;7.138;2023-04-24T11:30:06;8.43;;;3.00;;
49980;SDS011;35871;51.594;7.138;2023-04-24T11:35:14;5.90;;;3.22;;
49980;SDS011;35871;51.594;7.138;2023-04-24T11:40:16;5.80;;;2.70;;
49980;SDS011;35871;51.594;7.138;2023-04-24T11:45:23;5.82;;;2.58;;
49980;SDS011;35871;51.594;7.138;2023-04-24T11:50:25;5.25;;;2.35;;
49980;SDS011;35871;51.594;7.138;2023-04-24T11:55:28;6.72;;;3.25;;
49980;SDS011;35871;51.594;7.138;2023-04-24T12:00:30;5.72;;;2.58;;
49980;SDS011;35871;51.594;7.138;2023-04-24T12:05:34;7.45;;;3.17;;
49980;SDS011;35871;51.594;7.138;2023-04-24T12:10:35;5.53;;;2.50;;
49980;SDS011;35871;51.594;7.138;2023-04-24T12:15:39;3.50;;;2.30;;
49980;SDS011;35871;51.594;7.138;2023-04-24T12:20:40;6.05;;;2.85;;
49980;SDS011;35871;51.594;7.138;2023-04-24T12:25:41;5.15;;;2.38;;
49980;SDS011;35871;51.594;7.138;2023-04-24T12:30:43;7.07;;;3.03;;
49980;SDS011;35871;51.594;7.138;2023-04-24T12:35:45;3.90;;;2.35;;
49980;SDS011;35871;51.594;7.138;2023-04-24T12:40:46;5.47;;;2.33;;
49980;SDS011;35871;51.594;7.138;2023-04-24T12:50:48;4.85;;;2.47;;
49980;SDS011;35871;51.594;7.138;2023-04-24T12:55:49;4.53;;;2.10;;
49980;SDS011;35871;51.594;7.138;2023-04-24T13:00:52;4.95;;;2.47;;
49980;SDS011;35871;51.594;7.138;2023-04-24T13:05:54;4.65;;;2.75;;
49980;SDS011;35871;51.594;7.138;2023-04-24T13:10:55;3.85;;;1.83;;
49980;SDS011;35871;51.594;7.138;2023-04-24T13:15:56;3.53;;;2.08;;
49980;SDS011;35871;51.594;7.138;2023-04-24T13:30:59;2.70;;;1.83;;
49980;SDS011;35871;51.594;7.138;2023-04-24T13:46:03;2.72;;;1.90;;
49980;SDS011;35871;51.594;7.138;2023-04-24T13:51:04;3.63;;;2.78;;
49980;SDS011;35871;51.594;7.138;2023-04-24T13:56:05;5.80;;;1.80;;
49980;SDS011;35871;51.594;7.138;2023-04-24T14:01:06;4.68;;;2.42;;
49980;SDS011;35871;51.594;7.138;2023-04-24T14:06:07;2.92;;;1.80;;
49980;SDS011;35871;51.594;7.138;2023-04-24T14:11:08;4.40;;;2.00;;
49980;SDS011;35871;51.594;7.138;2023-04-24T14:16:09;3.85;;;2.05;;
49980;SDS011;35871;51.594;7.138;2023-04-24T14:21:11;5.03;;;3.08;;
49980;SDS011;35871;51.594;7.138;2023-04-24T14:26:12;2.97;;;1.80;;
49980;SDS011;35871;51.594;7.138;2023-04-24T14:31:13;2.03;;;1.63;;
49980;SDS011;35871;51.594;7.138;2023-04-24T14:36:14;3.53;;;1.90;;
49980;SDS011;35871;51.594;7.138;2023-04-24T14:46:16;2.80;;;1.85;;
49980;SDS011;35871;51.594;7.138;2023-04-24T14:51:17;5.57;;;1.90;;
49980;SDS011;35871;51.594;7.138;2023-04-24T14:56:18;2.63;;;1.90;;
49980;SDS011;35871;51.594;7.138;2023-04-24T15:01:19;3.38;;;2.60;;
49980;SDS011;35871;51.594;7.138;2023-04-24T15:06:21;2.92;;;2.10;;
49980;SDS011;35871;51.594;7.138;2023-04-24T15:11:22;2.45;;;1.50;;
49980;SDS011;35871;51.594;7.138;2023-04-24T15:16:23;3.85;;;1.90;;
49980;SDS011;35871;51.594;7.138;2023-04-24T15:21:24;4.80;;;2.95;;
49980;SDS011;35871;51.594;7.138;2023-04-24T15:26:25;4.32;;;2.80;;
49980;SDS011;35871;51.594;7.138;2023-04-24T15:31:26;3.63;;;1.45;;
49980;SDS011;35871;51.594;7.138;2023-04-24T15:36:28;3.05;;;1.50;;
49980;SDS011;35871;51.594;7.138;2023-04-24T15:41:29;3.10;;;1.60;;
49980;SDS011;35871;51.594;7.138;2023-04-24T15:46:31;3.85;;;1.80;;
49980;SDS011;35871;51.594;7.138;2023-04-24T15:51:35;2.20;;;1.30;;
49980;SDS011;35871;51.594;7.138;2023-04-24T15:56:36;3.50;;;1.10;;
49980;SDS011;35871;51.594;7.138;2023-04-24T16:01:37;2.15;;;1.17;;
49980;SDS011;35871;51.594;7.138;2023-04-24T16:06:39;2.05;;;1.08;;
49980;SDS011;35871;51.594;7.138;2023-04-24T16:11:40;2.75;;;1.30;;
49980;SDS011;35871;51.594;7.138;2023-04-24T16:16:41;2.15;;;1.10;;
49980;SDS011;35871;51.594;7.138;2023-04-24T16:21:42;3.30;;;1.10;;
49980;SDS011;35871;51.594;7.138;2023-04-24T16:26:43;4.20;;;2.05;;
49980;SDS011;35871;51.594;7.138;2023-04-24T16:31:44;3.42;;;1.75;;
49980;SDS011;35871;51.594;7.138;2023-04-24T16:36:45;3.58;;;1.42;;
49980;SDS011;35871;51.594;7.138;2023-04-24T16:46:49;2.92;;;1.40;;
49980;SDS011;35871;51.594;7.138;2023-04-24T16:51:50;4.00;;;1.75;;
49980;SDS011;35871;51.594;7.138;2023-04-24T17:01:52;4.05;;;1.38;;
49980;SDS011;35871;51.594;7.138;2023-04-24T17:11:54;2.90;;;1.17;;
49980;SDS011;35871;51.594;7.138;2023-04-24T17:16:55;2.83;;;1.85;;
49980;SDS011;35871;51.594;7.138;2023-04-24T17:26:57;2.80;;;1.42;;
49980;SDS011;35871;51.594;7.138;2023-04-24T17:31:59;1.73;;;1.20;;
49980;SDS011;35871;51.594;7.138;2023-04-24T17:42:03;3.08;;;1.33;;
49980;SDS011;35871;51.594;7.138;2023-04-24T17:47:04;3.35;;;1.50;;
49980;SDS011;35871;51.594;7.138;2023-04-24T17:57:06;2.88;;;1.33;;
49980;SDS011;35871;51.594;7.138;2023-04-24T18:02:07;2.95;;;1.33;;
49980;SDS011;35871;51.594;7.138;2023-04-24T18:07:08;4.38;;;1.65;;
49980;SDS011;35871;51.594;7.138;2023-04-24T18:12:09;2.67;;;1.20;;
49980;SDS011;35871;51.594;7.138;2023-04-24T18:17:10;4.05;;;1.60;;
49980;SDS011;35871;51.594;7.138;2023-04-24T18:22:11;4.43;;;1.90;;
49980;SDS011;35871;51.594;7.138;2023-04-24T18:27:12;4.35;;;1.67;;
49980;SDS011;35871;51.594;7.138;2023-04-24T18:32:13;4.00;;;1.70;;
49980;SDS011;35871;51.594;7.138;2023-04-24T18:37:15;3.50;;;1.38;;
49980;SDS011;35871;51.594;7.138;2023-04-24T18:42:16;2.70;;;1.50;;
49980;SDS011;35871;51.594;7.138;2023-04-24T18:47:17;3.58;;;1.48;;
49980;SDS011;35871;51.594;7.138;2023-04-24T18:52:18;3.50;;;1.75;;
49980;SDS011;35871;51.594;7.138;2023-04-24T18:57:19;3.05;;;1.52;;
49980;SDS011;35871;51.594;7.138;2023-04-24T19:02:20;3.70;;;1.30;;
49980;SDS011;35871;51.594;7.138;2023-04-24T19:07:21;3.92;;;1.38;;
49980;SDS011;35871;51.594;7.138;2023-04-24T19:12:23;3.53;;;1.70;;
